KPDK/PDK METAR and TAF weather

Enter ICAO airport designator
Station Type Date Time Source
KPDK METAR 2020/10/22 02:53 UTC NOAA

KPDK 220253Z 00000KT 10SM CLR 19/18 A3020 RMK AO2 SLP216 T01890178 52003


Station Type Date Time Source
KPDK Decoded METAR 2020/10/22 02:53 UTC NOAA

ATLANTA DE KALB-PEACHTREE, GA, United States (KPDK) 33-53N 084-18W 302M
Oct 21, 2020 - 10:53 PM EDT / 2020.10.22 0253 UTC
Wind: Calm:0
Visibility: 10 mile(s):0
Sky conditions: clear
Temperature: 66.0 F (18.9 C)
Dew Point: 64.0 F (17.8 C)
Relative Humidity: 93%
Pressure (altimeter): 30.2 in. Hg (1022 hPa)
Pressure tendency: 0.01 inches (0.3 hPa) higher than three hours ago
ob: KPDK 220253Z 00000KT 10SM CLR 19/18 A3020 RMK AO2 SLP216 T01890178 52003
cycle: 3

Station Type Date Time Source
KPDK TAF 2020/10/21 18:22 UTC NOAA

TAF KPDK 211720Z 2118/2218 08006KT P6SM SCT040
FM220000 07003KT P6SM FEW250
FM221100 07003KT P6SM SCT025
TEMPO 2212/2214 BKN018
FM221600 08006KT P6SM SCT040

Example: see airport list